createdAt,value
2019-02-10T00:01:00.146Z,39.87
2019-02-10T00:01:59.121Z,39.83
2019-02-10T00:02:59.184Z,39.86
2019-02-10T00:03:58.585Z,39.85
2019-02-10T00:05:00.481Z,39.82
2019-02-10T00:05:59.132Z,39.85
2019-02-10T00:06:58.670Z,39.85
2019-02-10T00:07:58.948Z,39.85
2019-02-10T00:08:58.898Z,39.86
2019-02-10T00:09:58.874Z,39.87
2019-02-10T00:10:59.084Z,39.85
2019-02-10T00:11:58.487Z,39.86
2019-02-10T00:12:59.972Z,39.87
2019-02-10T00:13:58.545Z,39.89
2019-02-10T00:14:59.011Z,39.89
2019-02-10T00:15:58.634Z,39.88
2019-02-10T00:16:59.361Z,39.86
2019-02-10T00:17:58.704Z,39.89
2019-02-10T00:18:58.907Z,39.88
2019-02-10T00:19:59.118Z,39.88
2019-02-10T00:20:59.006Z,39.87
2019-02-10T00:21:59.134Z,39.91
2019-02-10T00:22:58.655Z,39.86
2019-02-10T00:23:59.112Z,39.87
2019-02-10T00:24:58.449Z,39.85
2019-02-10T00:25:59.161Z,39.85
2019-02-10T00:26:59.098Z,39.87
2019-02-10T00:27:59.990Z,39.88
2019-02-10T00:28:58.773Z,39.86
2019-02-10T00:29:59.213Z,39.89
2019-02-10T00:30:58.990Z,39.89
2019-02-10T00:31:58.505Z,39.85
2019-02-10T00:32:59.264Z,39.9
2019-02-10T00:33:59.877Z,39.9
2019-02-10T00:34:59.635Z,39.9
2019-02-10T00:36:00.298Z,39.86
2019-02-10T00:36:58.989Z,39.89
2019-02-10T00:37:59.247Z,39.89
2019-02-10T00:38:58.607Z,39.89
2019-02-10T00:39:58.627Z,39.85
2019-02-10T00:40:58.963Z,39.88
2019-02-10T00:41:59.559Z,39.87
2019-02-10T00:42:59.088Z,39.87
2019-02-10T00:43:58.918Z,39.9
2019-02-10T00:44:58.794Z,39.87
2019-02-10T00:45:58.894Z,39.89
2019-02-10T00:46:59.125Z,39.89
2019-02-10T00:47:59.601Z,39.87
2019-02-10T00:48:58.780Z,39.92
2019-02-10T00:49:58.722Z,39.9
2019-02-10T00:50:58.872Z,39.9
2019-02-10T00:51:58.663Z,39.88
2019-02-10T00:52:58.706Z,39.89
2019-02-10T00:53:58.708Z,39.88
2019-02-10T00:54:59.377Z,39.89
2019-02-10T00:55:58.774Z,39.89
2019-02-10T00:56:58.890Z,39.86
2019-02-10T00:57:58.353Z,39.88
2019-02-10T00:58:58.885Z,39.89
2019-02-10T00:59:59.205Z,39.91
2019-02-10T01:00:59.723Z,39.92
2019-02-10T01:01:59.036Z,39.91
2019-02-10T01:02:58.594Z,39.91
2019-02-10T01:03:58.374Z,39.92
2019-02-10T01:04:58.361Z,39.9
2019-02-10T01:05:59.143Z,39.9
2019-02-10T01:06:59.056Z,39.93
2019-02-10T01:07:58.974Z,39.89
2019-02-10T01:08:59.004Z,39.89
2019-02-10T01:09:59.863Z,39.89
2019-02-10T01:11:00.435Z,39.85
2019-02-10T01:11:58.780Z,39.89
2019-02-10T01:12:58.408Z,39.91
2019-02-10T01:13:58.797Z,39.91
2019-02-10T01:14:58.298Z,39.91
2019-02-10T01:15:59.119Z,39.89
2019-02-10T01:16:58.834Z,39.9
2019-02-10T01:17:58.721Z,39.87
2019-02-10T01:18:59.053Z,39.91
2019-02-10T01:19:58.628Z,39.9
2019-02-10T01:20:58.960Z,39.9
2019-02-10T01:22:00.101Z,39.88
2019-02-10T01:22:58.918Z,39.92
2019-02-10T01:23:58.414Z,39.88
2019-02-10T01:24:59.067Z,39.9
2019-02-10T01:25:58.461Z,39.9
2019-02-10T01:26:58.835Z,39.89
2019-02-10T01:27:58.828Z,39.9
2019-02-10T01:28:58.799Z,39.88
2019-02-10T01:29:58.964Z,39.9
2019-02-10T01:30:58.567Z,39.99
2019-02-10T01:31:58.494Z,39.96
2019-02-10T01:32:58.915Z,39.96
2019-02-10T01:33:58.320Z,39.94
2019-02-10T01:34:59.532Z,39.95
2019-02-10T01:35:59.102Z,39.95
2019-02-10T01:36:58.914Z,39.98
2019-02-10T01:37:58.746Z,39.92
2019-02-10T01:38:58.803Z,39.92
2019-02-10T01:39:58.888Z,39.95
2019-02-10T01:41:00.058Z,39.93
2019-02-10T01:41:59.887Z,39.94
2019-02-10T01:42:58.399Z,39.92
2019-02-10T01:43:58.499Z,39.94
2019-02-10T01:44:58.710Z,39.93
2019-02-10T01:45:58.775Z,39.96
2019-02-10T01:46:59.150Z,39.95
2019-02-10T01:47:59.039Z,39.92
2019-02-10T01:48:59.374Z,39.98
2019-02-10T01:49:59.485Z,39.93
2019-02-10T01:51:00.335Z,39.94
2019-02-10T01:51:58.673Z,39.94
2019-02-10T01:52:58.797Z,39.94
2019-02-10T01:53:58.462Z,39.95
2019-02-10T01:54:58.939Z,39.93
2019-02-10T01:55:59.609Z,39.97
2019-02-10T01:56:58.960Z,39.92
2019-02-10T01:57:58.780Z,39.96
2019-02-10T01:58:58.922Z,40.01
2019-02-10T01:59:58.404Z,39.95
2019-02-10T02:00:58.510Z,39.95
2019-02-10T02:01:58.335Z,39.95
2019-02-10T02:02:58.481Z,39.95
2019-02-10T02:03:59.035Z,39.93
2019-02-10T02:04:58.384Z,39.97
2019-02-10T02:05:59.278Z,39.96
2019-02-10T02:06:58.302Z,39.95
2019-02-10T02:08:00.048Z,39.96
2019-02-10T02:08:58.878Z,39.97
2019-02-10T02:09:58.786Z,39.99
2019-02-10T02:10:59.002Z,39.99
2019-02-10T02:11:59.092Z,39.97
2019-02-10T02:12:59.735Z,39.95
2019-02-10T02:13:58.562Z,39.99
2019-02-10T02:14:59.081Z,39.97
2019-02-10T02:15:59.030Z,39.92
2019-02-10T02:16:58.495Z,39.95
2019-02-10T02:17:58.493Z,39.92
2019-02-10T02:18:58.333Z,39.91
2019-02-10T02:19:58.777Z,39.91
2019-02-10T02:20:59.117Z,39.91
2019-02-10T02:21:58.749Z,39.93
2019-02-10T02:22:59.504Z,39.93
2019-02-10T02:23:58.777Z,39.92
2019-02-10T02:24:58.924Z,39.96
2019-02-10T02:25:58.289Z,39.95
2019-02-10T02:26:58.797Z,39.98
2019-02-10T02:27:58.582Z,39.94
2019-02-10T02:28:58.493Z,39.95
2019-02-10T02:29:58.301Z,39.93
2019-02-10T02:30:59.344Z,39.95
2019-02-10T02:31:59.062Z,39.92
2019-02-10T02:32:58.646Z,39.93
2019-02-10T02:33:59.072Z,39.9
2019-02-10T02:34:58.593Z,39.96
2019-02-10T02:35:58.876Z,39.94
2019-02-10T02:37:08.382Z,39.92
2019-02-10T02:37:58.631Z,39.95
2019-02-10T02:38:59.473Z,39.93
2019-02-10T02:39:58.636Z,39.95
2019-02-10T02:40:59.201Z,39.93
2019-02-10T02:41:58.408Z,39.97
2019-02-10T02:42:58.299Z,39.96
2019-02-10T02:43:58.653Z,39.99
2019-02-10T02:44:58.938Z,39.97
2019-02-10T02:45:58.940Z,39.97
2019-02-10T02:46:59.068Z,39.97
2019-02-10T02:48:00.411Z,39.97
2019-02-10T02:48:58.280Z,39.96
2019-02-10T02:49:58.401Z,39.98
2019-02-10T02:50:58.216Z,39.98
2019-02-10T02:52:00.339Z,39.99
2019-02-10T02:52:58.795Z,40
2019-02-10T02:53:58.699Z,39.99
2019-02-10T02:54:58.293Z,39.98
2019-02-10T02:55:58.832Z,40
2019-02-10T02:56:59.076Z,39.99
2019-02-10T02:58:00.408Z,39.99
2019-02-10T02:58:58.379Z,40
2019-02-10T02:59:58.400Z,39.94
2019-02-10T03:00:58.733Z,39.96
2019-02-10T03:01:58.750Z,39.96
2019-02-10T03:02:58.759Z,40.03
2019-02-10T03:03:59.235Z,39.97
2019-02-10T03:04:58.452Z,39.98
2019-02-10T03:05:58.598Z,39.96
2019-02-10T03:06:58.395Z,39.96
2019-02-10T03:07:59.111Z,40.01
2019-02-10T03:08:59.307Z,40
2019-02-10T03:09:58.720Z,40.01
2019-02-10T03:10:58.554Z,40.02
2019-02-10T03:11:58.861Z,40.01
2019-02-10T03:12:58.729Z,40.01
2019-02-10T03:13:58.438Z,40.01
2019-02-10T03:14:59.110Z,40.02
2019-02-10T03:15:59.120Z,39.97
2019-02-10T03:16:59.070Z,40
2019-02-10T03:17:58.324Z,40.02
2019-02-10T03:18:58.986Z,39.97
2019-02-10T03:19:59.631Z,40
2019-02-10T03:20:59.094Z,39.99
2019-02-10T03:21:59.039Z,39.97
2019-02-10T03:22:58.398Z,40
2019-02-10T03:23:58.440Z,39.96
2019-02-10T03:24:59.445Z,39.99
2019-02-10T03:25:58.733Z,39.99
2019-02-10T03:26:59.347Z,40
2019-02-10T03:27:59.363Z,40
2019-02-10T03:28:58.435Z,40.05
2019-02-10T03:29:58.747Z,40.02
2019-02-10T03:30:59.408Z,39.98
2019-02-10T03:31:58.781Z,40.02
2019-02-10T03:32:58.800Z,40.01
2019-02-10T03:33:58.852Z,40.01
2019-02-10T03:34:59.419Z,40.02
2019-02-10T03:35:59.258Z,40.03
2019-02-10T03:36:58.405Z,40
2019-02-10T03:38:00.338Z,39.98
2019-02-10T03:38:59.222Z,39.99
2019-02-10T03:39:59.032Z,40.02
2019-02-10T03:40:59.139Z,40.01
2019-02-10T03:41:58.837Z,40.02
2019-02-10T03:42:59.155Z,40.01
2019-02-10T03:43:59.349Z,40.01
2019-02-10T03:44:58.393Z,40
2019-02-10T03:45:58.546Z,40.02
2019-02-10T03:46:58.913Z,40.01
2019-02-10T03:47:58.393Z,40
2019-02-10T03:48:58.537Z,39.98
2019-02-10T03:49:58.490Z,40.01
2019-02-10T03:50:58.786Z,40.03
2019-02-10T03:51:59.096Z,40.01
2019-02-10T03:52:58.431Z,40.03
2019-02-10T03:53:58.742Z,40.03
2019-02-10T03:54:58.407Z,40
2019-02-10T03:55:58.619Z,40.01
2019-02-10T03:56:58.441Z,40.03
2019-02-10T03:57:59.166Z,40
2019-02-10T03:58:58.651Z,40.03
2019-02-10T03:59:58.466Z,40.02
2019-02-10T04:00:59.808Z,40.04
2019-02-10T04:01:58.787Z,40.02
2019-02-10T04:03:00.018Z,40.03
2019-02-10T04:03:59.147Z,40.05
2019-02-10T04:04:58.195Z,40.01
2019-02-10T04:05:58.642Z,40.05
2019-02-10T04:06:58.593Z,40.04
2019-02-10T04:08:00.285Z,40.04
2019-02-10T04:08:59.444Z,40.07
2019-02-10T04:09:58.394Z,40.02
2019-02-10T04:10:58.330Z,40.05
2019-02-10T04:11:59.249Z,40.05
2019-02-10T04:12:58.769Z,40.06
2019-02-10T04:14:00.308Z,40.05
2019-02-10T04:14:58.698Z,40.05
2019-02-10T04:15:59.193Z,40.06
2019-02-10T04:17:00.343Z,40.04
2019-02-10T04:17:58.742Z,40.03
2019-02-10T04:18:58.391Z,40.03
2019-02-10T04:19:58.548Z,40.06
2019-02-10T04:20:58.608Z,40.04
2019-02-10T04:21:59.098Z,40.06
2019-02-10T04:22:58.400Z,40.09
2019-02-10T04:23:58.260Z,40.05
2019-02-10T04:24:58.679Z,40.04
2019-02-10T04:25:58.448Z,40.01
2019-02-10T04:26:58.534Z,40.06
2019-02-10T04:27:59.357Z,40.05
2019-02-10T04:28:58.851Z,40.08
2019-02-10T04:29:58.378Z,40.04
2019-02-10T04:30:59.074Z,40.06
2019-02-10T04:31:58.810Z,40.08
2019-02-10T04:32:59.119Z,40.07
2019-02-10T04:33:59.202Z,40.07
2019-02-10T04:34:58.701Z,40.06
2019-02-10T04:35:58.441Z,40.07
2019-02-10T04:36:58.970Z,40.05
2019-02-10T04:37:58.496Z,40.07
2019-02-10T04:38:58.565Z,40.09
2019-02-10T04:40:00.398Z,40.05
2019-02-10T04:40:58.477Z,40.08
2019-02-10T04:41:58.693Z,40.07
2019-02-10T04:42:58.795Z,40.04
2019-02-10T04:43:58.636Z,40.03
2019-02-10T04:44:58.464Z,40.03
2019-02-10T04:45:59.126Z,40.02
2019-02-10T04:46:59.046Z,40.04
2019-02-10T04:47:59.326Z,40.02
2019-02-10T04:48:58.644Z,40.02
2019-02-10T04:49:58.831Z,40.02
2019-02-10T04:50:58.852Z,40.01
2019-02-10T04:51:58.665Z,40.03
2019-02-10T04:52:58.450Z,40.04
2019-02-10T04:53:58.931Z,40.03
2019-02-10T04:54:58.369Z,40.03
2019-02-10T04:55:58.403Z,40
2019-02-10T04:56:58.621Z,39.98
2019-02-10T04:57:58.701Z,39.97
2019-02-10T04:58:58.634Z,39.99
2019-02-10T05:00:00.459Z,39.98
2019-02-10T05:00:58.251Z,39.98
2019-02-10T05:01:59.437Z,40
2019-02-10T05:02:58.494Z,40
2019-02-10T05:03:58.279Z,39.95
2019-02-10T05:04:58.941Z,39.97
2019-02-10T05:05:58.413Z,40.02
2019-02-10T05:06:58.663Z,39.99
2019-02-10T05:07:58.409Z,39.98
2019-02-10T05:09:00.163Z,39.96
2019-02-10T05:09:58.717Z,39.96
2019-02-10T05:11:00.370Z,39.94
2019-02-10T05:11:58.626Z,39.95
2019-02-10T05:12:58.796Z,39.92
2019-02-10T05:13:58.729Z,39.91
2019-02-10T05:14:58.743Z,39.89
2019-02-10T05:15:58.539Z,39.9
2019-02-10T05:16:58.520Z,39.88
2019-02-10T05:17:58.758Z,39.86
2019-02-10T05:18:58.541Z,39.84
2019-02-10T05:20:00.316Z,39.86
2019-02-10T05:20:59.178Z,39.86
2019-02-10T05:21:58.978Z,39.85
2019-02-10T05:23:00.176Z,39.83
2019-02-10T05:24:03.943Z,39.83
2019-02-10T05:25:00.116Z,39.84
2019-02-10T05:25:58.725Z,39.84
2019-02-10T05:26:58.621Z,39.82
2019-02-10T05:27:59.611Z,39.8
2019-02-10T05:28:58.734Z,39.75
2019-02-10T05:29:58.931Z,39.76
2019-02-10T05:30:58.528Z,39.77
2019-02-10T05:31:58.366Z,39.8
2019-02-10T05:32:58.378Z,39.75
2019-02-10T05:33:58.588Z,39.74
2019-02-10T05:34:59.081Z,39.78
2019-02-10T05:35:58.673Z,39.78
2019-02-10T05:36:58.769Z,39.77
2019-02-10T05:38:04.707Z,39.79
2019-02-10T05:38:58.379Z,39.76
2019-02-10T05:39:58.226Z,39.73
2019-02-10T05:40:58.279Z,39.77
2019-02-10T05:41:58.531Z,39.79
2019-02-10T05:42:58.512Z,39.76
2019-02-10T05:43:58.199Z,39.72
2019-02-10T05:44:58.796Z,39.78
2019-02-10T05:45:58.629Z,39.77
2019-02-10T05:46:58.446Z,39.77
2019-02-10T05:47:58.950Z,39.67
2019-02-10T05:48:58.761Z,39.77
2019-02-10T05:49:58.573Z,39.74
2019-02-10T05:50:58.580Z,39.79
2019-02-10T05:51:58.446Z,39.75
2019-02-10T05:52:58.739Z,39.78
2019-02-10T05:53:58.931Z,39.73
2019-02-10T05:54:59.209Z,39.75
2019-02-10T05:55:58.838Z,39.75
2019-02-10T05:57:00.199Z,39.68
2019-02-10T05:57:58.812Z,39.74
2019-02-10T05:58:58.316Z,39.74
2019-02-10T05:59:58.881Z,39.75
2019-02-10T06:01:00.298Z,39.7
2019-02-10T06:01:58.648Z,39.73
2019-02-10T06:02:59.186Z,39.72
2019-02-10T06:03:58.783Z,39.68
2019-02-10T06:04:59.942Z,39.69
2019-02-10T06:05:59.122Z,39.72
2019-02-10T06:06:58.343Z,39.72
2019-02-10T06:07:58.691Z,39.7
2019-02-10T06:08:58.923Z,39.73
2019-02-10T06:09:59.635Z,39.75
2019-02-10T06:10:58.296Z,39.84
2019-02-10T06:11:59.641Z,39.54
2019-02-10T06:12:58.194Z,39.37
2019-02-10T06:13:58.394Z,39.35
2019-02-10T06:14:58.856Z,39.24
2019-02-10T06:15:59.241Z,39.01
2019-02-10T06:16:58.859Z,39.09
2019-02-10T06:17:58.977Z,39
2019-02-10T06:18:58.885Z,39.13
2019-02-10T06:19:59.297Z,39.06
2019-02-10T06:20:59.214Z,39.08
2019-02-10T06:21:58.987Z,38.97
2019-02-10T06:22:58.704Z,39
2019-02-10T06:23:58.374Z,39.05
2019-02-10T06:24:58.345Z,39.05
2019-02-10T06:25:58.612Z,39
2019-02-10T06:26:58.714Z,39.21
2019-02-10T06:27:58.282Z,39.14
2019-02-10T06:28:58.298Z,39.19
2019-02-10T06:29:58.642Z,39.14
2019-02-10T06:30:58.635Z,39.19
2019-02-10T06:31:59.172Z,39.22
2019-02-10T06:32:58.209Z,39.18
2019-02-10T06:33:58.402Z,39.2
2019-02-10T06:34:59.313Z,39.17
2019-02-10T06:35:58.509Z,39.21
2019-02-10T06:36:58.353Z,39.15
2019-02-10T06:37:58.919Z,39.13
2019-02-10T06:38:58.818Z,39.16
2019-02-10T06:40:00.458Z,39.14
2019-02-10T06:40:58.608Z,39.13
2019-02-10T06:41:58.721Z,39.15
2019-02-10T06:42:59.837Z,39.13
2019-02-10T06:43:59.054Z,39.1
2019-02-10T06:44:58.654Z,39.12
2019-02-10T06:45:59.250Z,39.1
2019-02-10T06:46:58.491Z,39.11
2019-02-10T06:47:59.922Z,39.11
2019-02-10T06:48:58.994Z,39.1
2019-02-10T06:49:58.695Z,39.1
2019-02-10T06:50:58.376Z,39.09
2019-02-10T06:51:58.306Z,39.09
2019-02-10T06:52:58.140Z,39.11
2019-02-10T06:53:58.287Z,39.08
2019-02-10T06:54:59.038Z,39.1
2019-02-10T06:55:59.249Z,39.08
2019-02-10T06:56:58.874Z,39.1
2019-02-10T06:57:58.266Z,39.08
2019-02-10T06:58:58.258Z,39.12
2019-02-10T06:59:59.178Z,39.12
2019-02-10T07:00:58.242Z,39.08
2019-02-10T07:01:58.112Z,39.09
2019-02-10T07:02:58.795Z,39.05
2019-02-10T07:03:59.030Z,39.06
2019-02-10T07:04:58.700Z,39.1
2019-02-10T07:05:58.712Z,39.09
2019-02-10T07:07:00.170Z,39.08
2019-02-10T07:07:59.244Z,39.12
2019-02-10T07:08:58.244Z,39.12
2019-02-10T07:09:58.384Z,39.06
2019-02-10T07:10:58.638Z,39.1
2019-02-10T07:12:00.127Z,39.1
2019-02-10T07:12:58.633Z,39.1
2019-02-10T07:13:58.384Z,39.1
2019-02-10T07:14:58.677Z,39.1
2019-02-10T07:15:58.585Z,39.09
2019-02-10T07:16:58.572Z,39.07
2019-02-10T07:17:59.217Z,39.08
2019-02-10T07:18:58.424Z,39.06
2019-02-10T07:19:58.683Z,39.07
2019-02-10T07:20:58.278Z,39.08
2019-02-10T07:21:58.702Z,39.08
2019-02-10T07:22:58.510Z,39.11
2019-02-10T07:23:59.112Z,39.08
2019-02-10T07:24:58.265Z,39.09
2019-02-10T07:25:58.092Z,39.08
2019-02-10T07:26:58.413Z,39.1
2019-02-10T07:28:00.071Z,39.07
2019-02-10T07:28:58.286Z,39.09
2019-02-10T07:29:59.271Z,39.09
2019-02-10T07:30:58.880Z,39.04
2019-02-10T07:31:58.531Z,39.05
2019-02-10T07:32:58.604Z,39.07
2019-02-10T07:33:59.105Z,39.06
2019-02-10T07:35:00.272Z,39.07
2019-02-10T07:35:58.721Z,39.04
2019-02-10T07:36:58.600Z,39.06
2019-02-10T07:37:58.617Z,39.07
2019-02-10T07:38:59.034Z,39.05
2019-02-10T07:39:58.636Z,39.05
2019-02-10T07:40:58.509Z,39.05
2019-02-10T07:41:58.753Z,39.08
2019-02-10T07:42:58.669Z,39.03
2019-02-10T07:43:58.467Z,39.06
2019-02-10T07:44:58.291Z,39.03
2019-02-10T07:45:58.592Z,39.04
2019-02-10T07:46:58.235Z,39.05
2019-02-10T07:47:58.644Z,39.06
2019-02-10T07:48:58.678Z,39.07
2019-02-10T07:49:59.106Z,39.04
2019-02-10T07:50:59.144Z,39.04
2019-02-10T07:51:58.821Z,39.04
2019-02-10T07:53:00.382Z,39.06
2019-02-10T07:53:58.953Z,39.05
2019-02-10T07:54:58.668Z,39.02
2019-02-10T07:55:58.166Z,39.03
2019-02-10T07:56:58.887Z,39.06
2019-02-10T07:57:58.873Z,39.06
2019-02-10T07:58:58.547Z,39.07
2019-02-10T07:59:58.403Z,39.07
2019-02-10T08:00:58.803Z,39.04
2019-02-10T08:01:58.700Z,39.04
2019-02-10T08:02:58.507Z,39.04
2019-02-10T08:03:58.282Z,39.05
2019-02-10T08:04:59.007Z,39.02
2019-02-10T08:05:59.950Z,39.02
2019-02-10T08:06:58.728Z,39.03
2019-02-10T08:07:58.617Z,39.05
2019-02-10T08:08:58.248Z,39.05
2019-02-10T08:09:58.356Z,39.01
2019-02-10T08:10:58.291Z,39.03
2019-02-10T08:11:58.680Z,39.01
2019-02-10T08:13:00.219Z,39.05
2019-02-10T08:13:58.405Z,39.05
2019-02-10T08:14:58.218Z,39
2019-02-10T08:15:58.759Z,39.02
2019-02-10T08:16:58.190Z,39.04
2019-02-10T08:17:58.602Z,39.02
2019-02-10T08:18:58.599Z,39.02
2019-02-10T08:19:58.754Z,39
2019-02-10T08:20:58.722Z,39.04
2019-02-10T08:21:58.236Z,39.02
2019-02-10T08:22:59.552Z,39.02
2019-02-10T08:23:58.645Z,39.01
2019-02-10T08:25:00.028Z,39.01
2019-02-10T08:25:58.458Z,39.02
2019-02-10T08:26:58.761Z,39
2019-02-10T08:27:59.391Z,39.01
2019-02-10T08:28:59.202Z,39
2019-02-10T08:29:58.765Z,39.01
2019-02-10T08:30:58.098Z,39.02
2019-02-10T08:31:58.804Z,39
2019-02-10T08:32:59.245Z,38.98
2019-02-10T08:33:58.741Z,38.99
2019-02-10T08:34:58.838Z,38.99
2019-02-10T08:36:00.098Z,38.99
2019-02-10T08:36:58.182Z,39
2019-02-10T08:37:58.478Z,38.98
2019-02-10T08:38:58.962Z,38.97
2019-02-10T08:39:58.214Z,38.98
2019-02-10T08:40:59.162Z,38.99
2019-02-10T08:41:59.185Z,38.94
2019-02-10T08:42:58.796Z,38.97
2019-02-10T08:43:58.483Z,39
2019-02-10T08:44:58.883Z,38.99
2019-02-10T08:45:58.372Z,38.99
2019-02-10T08:46:58.414Z,38.99
2019-02-10T08:47:58.378Z,38.98
2019-02-10T08:48:58.462Z,38.97
2019-02-10T08:49:58.766Z,38.97
2019-02-10T08:50:58.942Z,38.95
2019-02-10T08:51:58.160Z,38.97
2019-02-10T08:53:00.065Z,38.96
2019-02-10T08:54:00.232Z,38.94
2019-02-10T08:54:58.357Z,38.94
2019-02-10T08:55:58.862Z,38.95
2019-02-10T08:56:59.840Z,38.94
2019-02-10T08:57:58.676Z,38.91
2019-02-10T08:58:58.688Z,38.93
2019-02-10T08:59:58.717Z,38.91
2019-02-10T09:00:58.283Z,38.94
2019-02-10T09:01:59.922Z,38.93
2019-02-10T09:02:58.349Z,38.92
2019-02-10T09:03:58.418Z,38.92
2019-02-10T09:04:58.615Z,38.92
2019-02-10T09:05:58.666Z,38.91
2019-02-10T09:06:59.560Z,38.93
2019-02-10T09:07:58.867Z,38.93
2019-02-10T09:09:02.969Z,38.93
2019-02-10T09:10:00.411Z,38.92
2019-02-10T09:10:58.275Z,38.94
2019-02-10T09:11:58.821Z,38.95
2019-02-10T09:12:59.012Z,38.94
2019-02-10T09:13:58.634Z,38.94
2019-02-10T09:14:58.815Z,38.93
2019-02-10T09:15:59.931Z,38.93
2019-02-10T09:16:58.176Z,38.95
2019-02-10T09:17:59.979Z,38.92
2019-02-10T09:18:58.387Z,38.89
2019-02-10T09:19:59.133Z,38.92
2019-02-10T09:20:58.749Z,38.91
2019-02-10T09:21:58.085Z,38.92
2019-02-10T09:22:58.512Z,38.93
2019-02-10T09:23:58.287Z,38.93
2019-02-10T09:24:58.622Z,38.92
2019-02-10T09:25:58.243Z,38.9
2019-02-10T09:26:58.707Z,38.91
2019-02-10T09:27:58.685Z,38.91
2019-02-10T09:28:58.285Z,38.89
2019-02-10T09:29:59.000Z,38.89
2019-02-10T09:31:00.000Z,38.89
2019-02-10T09:31:58.262Z,38.89
2019-02-10T09:32:58.942Z,38.88
2019-02-10T09:33:58.935Z,38.86
2019-02-10T09:35:00.315Z,38.88
2019-02-10T09:35:58.468Z,38.87
2019-02-10T09:36:58.761Z,38.87
2019-02-10T09:37:58.260Z,38.88
2019-02-10T09:38:58.382Z,39.12
2019-02-10T09:39:58.462Z,39.09
2019-02-10T09:41:00.143Z,39.08
2019-02-10T09:41:58.286Z,39.01
2019-02-10T09:42:58.403Z,39.1
2019-02-10T09:43:58.248Z,39.12
2019-02-10T09:44:58.921Z,39.09
2019-02-10T09:45:58.523Z,39.18
2019-02-10T09:46:58.538Z,39.18
2019-02-10T09:47:58.952Z,39.23
2019-02-10T09:48:59.712Z,39.21
2019-02-10T09:49:58.217Z,39.2
2019-02-10T09:50:58.544Z,39.18
2019-02-10T09:51:58.099Z,39.13
2019-02-10T09:52:58.908Z,39.03
2019-02-10T09:53:58.423Z,39.1
2019-02-10T09:54:58.481Z,39.13
2019-02-10T09:55:58.564Z,39.17
2019-02-10T09:56:58.236Z,39.21
2019-02-10T09:58:00.010Z,39.15
2019-02-10T09:58:58.713Z,39.13
2019-02-10T09:59:58.400Z,39.08
2019-02-10T10:00:58.420Z,39.09
2019-02-10T10:01:58.758Z,39.04
2019-02-10T10:02:58.673Z,39.03
2019-02-10T10:03:58.703Z,39
2019-02-10T10:04:58.237Z,39.02
2019-02-10T10:05:58.316Z,39.12
2019-02-10T10:06:58.362Z,39.15
2019-02-10T10:07:58.475Z,38.88
2019-02-10T10:08:58.720Z,38.86
2019-02-10T10:09:58.218Z,38.85
2019-02-10T10:10:59.398Z,38.8
2019-02-10T10:11:59.216Z,38.78
2019-02-10T10:12:58.627Z,38.79
2019-02-10T10:13:58.629Z,38.73
2019-02-10T10:14:59.132Z,38.77
2019-02-10T10:15:58.221Z,38.76
2019-02-10T10:16:58.234Z,38.72
2019-02-10T10:17:58.769Z,38.72
2019-02-10T10:18:58.349Z,38.71
2019-02-10T10:19:58.671Z,38.7
2019-02-10T10:20:58.684Z,38.69
2019-02-10T10:21:58.557Z,38.69
2019-02-10T10:22:58.052Z,38.7
2019-02-10T10:24:00.003Z,38.68
2019-02-10T10:24:58.702Z,38.68
2019-02-10T10:25:58.193Z,38.66
2019-02-10T10:26:58.712Z,38.66
2019-02-10T10:27:58.318Z,38.64
2019-02-10T10:28:58.484Z,38.81
2019-02-10T10:29:58.258Z,38.9
2019-02-10T10:30:58.228Z,38.99
2019-02-10T10:31:58.307Z,39.18
2019-02-10T10:32:58.979Z,39.16
2019-02-10T10:33:58.467Z,39.16
2019-02-10T10:34:58.457Z,39.18
2019-02-10T10:35:58.681Z,39.26
2019-02-10T10:36:58.989Z,39.24
2019-02-10T10:37:58.689Z,39.23
2019-02-10T10:38:58.548Z,39.2
2019-02-10T10:39:58.368Z,39.33
2019-02-10T10:40:58.146Z,39.21
2019-02-10T10:42:00.054Z,39.03
2019-02-10T10:42:59.132Z,39.26
2019-02-10T10:43:58.363Z,39.38
2019-02-10T10:44:58.342Z,39.42
2019-02-10T10:45:58.678Z,39.39
2019-02-10T10:46:58.632Z,39.27
2019-02-10T10:47:58.198Z,39.4
2019-02-10T10:48:59.759Z,39.41
2019-02-10T10:49:58.111Z,39.21
2019-02-10T10:50:58.475Z,39.68
2019-02-10T10:51:58.812Z,39.43
2019-02-10T10:52:58.303Z,39.49
2019-02-10T10:54:00.042Z,39.34
2019-02-10T10:54:59.001Z,39.49
2019-02-10T10:55:59.049Z,39.37
2019-02-10T10:56:58.482Z,39.35
2019-02-10T10:57:59.134Z,39.71
2019-02-10T10:58:58.061Z,39.64
2019-02-10T10:59:58.452Z,39.44
2019-02-10T11:00:58.750Z,39.49
2019-02-10T11:01:59.887Z,39.45
2019-02-10T11:02:58.695Z,39.34
2019-02-10T11:03:58.584Z,39.72
2019-02-10T11:04:59.044Z,39.57
2019-02-10T11:06:00.735Z,39.46
2019-02-10T11:06:59.131Z,39.48
2019-02-10T11:07:58.430Z,39.19
2019-02-10T11:08:58.174Z,39.36
2019-02-10T11:09:58.969Z,39.4
2019-02-10T11:10:58.720Z,39.28
2019-02-10T11:11:58.184Z,39.77
2019-02-10T11:13:00.108Z,39.77
2019-02-10T11:13:58.957Z,39.69
2019-02-10T11:14:58.516Z,39.96
2019-02-10T11:15:59.557Z,39.71
2019-02-10T11:16:59.074Z,39.93
2019-02-10T11:17:58.571Z,39.67
2019-02-10T11:18:59.007Z,40.25
2019-02-10T11:19:59.416Z,40.32
2019-02-10T11:20:58.241Z,40.5
2019-02-10T11:21:58.253Z,40.68
2019-02-10T11:23:00.252Z,40.38
2019-02-10T11:23:58.623Z,40.36
2019-02-10T11:24:58.876Z,40.25
2019-02-10T11:25:58.777Z,39.36
2019-02-10T11:27:00.111Z,40.39
2019-02-10T11:27:58.589Z,39.85
2019-02-10T11:28:59.944Z,39.87
2019-02-10T11:29:58.510Z,39.57
2019-02-10T11:30:58.837Z,40.31
2019-02-10T11:31:59.033Z,40.71
2019-02-10T11:32:58.715Z,40.41
2019-02-10T11:33:58.545Z,40.54
2019-02-10T11:34:58.363Z,40.49
2019-02-10T11:35:58.269Z,39.36
2019-02-10T11:36:58.192Z,39.68
2019-02-10T11:37:58.065Z,40.15
2019-02-10T11:38:58.205Z,39.67
2019-02-10T11:39:58.340Z,40.6
2019-02-10T11:40:58.285Z,40.38
2019-02-10T11:41:58.295Z,40.02
2019-02-10T11:43:00.186Z,40.1
2019-02-10T11:43:58.282Z,39.54
2019-02-10T11:44:59.123Z,39.41
2019-02-10T11:45:58.734Z,38.98
2019-02-10T11:46:58.571Z,38.99
2019-02-10T11:47:58.751Z,38.95
2019-02-10T11:48:58.859Z,39.46
2019-02-10T11:49:58.672Z,39.07
2019-02-10T11:50:58.222Z,39.25
2019-02-10T11:51:58.476Z,39.49
2019-02-10T11:52:58.675Z,39.46
2019-02-10T11:53:58.237Z,39.47
2019-02-10T11:54:58.087Z,39.46
2019-02-10T11:56:00.204Z,39.5
2019-02-10T11:56:58.846Z,39.6
2019-02-10T11:57:58.226Z,39.27
2019-02-10T11:58:58.687Z,39.92
2019-02-10T11:59:58.166Z,39.8
2019-02-10T12:00:58.638Z,39.6
2019-02-10T12:01:58.945Z,39.75
2019-02-10T12:02:58.489Z,40.04
2019-02-10T12:03:58.138Z,39.97
2019-02-10T12:04:58.874Z,39.45
2019-02-10T12:05:58.201Z,39.38
2019-02-10T12:06:58.301Z,39.2
2019-02-10T12:07:59.189Z,39.18
2019-02-10T12:08:58.698Z,39.22
2019-02-10T12:09:58.769Z,39.05
2019-02-10T12:10:58.397Z,38.91
2019-02-10T12:11:58.462Z,39.07
2019-02-10T12:12:58.528Z,38.99
2019-02-10T12:14:00.248Z,39.01
2019-02-10T12:14:58.401Z,39.19
2019-02-10T12:15:58.753Z,39.24
2019-02-10T12:16:58.249Z,39.09
2019-02-10T12:17:58.199Z,39.15
2019-02-10T12:18:58.669Z,39.07
2019-02-10T12:19:58.291Z,39.4
2019-02-10T12:20:58.631Z,39.1
2019-02-10T12:21:58.692Z,38.93
2019-02-10T12:22:58.792Z,39.09
2019-02-10T12:23:58.223Z,38.96
2019-02-10T12:24:58.180Z,39.03
2019-02-10T12:25:58.716Z,39.06
2019-02-10T12:26:58.619Z,38.94
2019-02-10T12:27:59.038Z,38.86
2019-02-10T12:28:58.831Z,38.88
2019-02-10T12:29:58.222Z,38.97
2019-02-10T12:30:58.240Z,39.18
2019-02-10T12:31:58.126Z,39.11
2019-02-10T12:32:58.273Z,39.19
2019-02-10T12:33:58.253Z,39.15
2019-02-10T12:34:58.457Z,38.97
2019-02-10T12:35:59.498Z,38.96
2019-02-10T12:36:58.372Z,38.92
2019-02-10T12:37:58.674Z,39.03
2019-02-10T12:38:58.296Z,38.92
2019-02-10T12:40:00.126Z,38.95
2019-02-10T12:40:58.040Z,39.04
2019-02-10T12:41:58.624Z,39.02
2019-02-10T12:42:58.529Z,39.07
2019-02-10T12:43:59.120Z,39.09
2019-02-10T12:44:58.199Z,39.16
2019-02-10T12:45:58.665Z,39.18
2019-02-10T12:46:58.250Z,39.09
2019-02-10T12:47:58.297Z,39.08
2019-02-10T12:48:58.767Z,39.11
2019-02-10T12:49:58.135Z,39.09
2019-02-10T12:50:59.399Z,39.06
2019-02-10T12:51:58.245Z,39.03
2019-02-10T12:52:58.080Z,39.03
2019-02-10T12:53:58.309Z,39.02
2019-02-10T12:54:58.813Z,39.09
2019-02-10T12:55:58.235Z,39.04
2019-02-10T12:56:58.318Z,39.02
2019-02-10T12:57:58.145Z,39.12